createdAt,value
2018-03-07T00:01:37.414Z,55.30
2018-03-07T00:04:05.900Z,53.20
2018-03-07T00:06:34.370Z,57.50
2018-03-07T00:09:02.870Z,54.87
2018-03-07T00:11:31.370Z,56.83
2018-03-07T00:13:59.853Z,50.03
2018-03-07T00:16:28.348Z,54.17
2018-03-07T00:18:56.848Z,55.33
2018-03-07T00:21:25.363Z,54.73
2018-03-07T00:23:53.834Z,55.27
2018-03-07T00:26:22.331Z,55.23
2018-03-07T00:28:50.790Z,56.57
2018-03-07T00:31:19.293Z,55.50
2018-03-07T00:33:47.806Z,57.00
2018-03-07T00:36:16.275Z,59.03
2018-03-07T00:38:44.774Z,56.10
2018-03-07T00:41:13.262Z,59.70
2018-03-07T00:43:41.779Z,55.90
2018-03-07T00:46:10.243Z,59.07
2018-03-07T00:48:38.721Z,56.03
2018-03-07T00:51:07.222Z,57.70
2018-03-07T00:53:35.684Z,57.50
2018-03-07T00:56:04.201Z,55.37
2018-03-07T00:58:32.713Z,56.23
2018-03-07T01:01:01.167Z,50.57
2018-03-07T01:03:30.338Z,51.10
2018-03-07T01:05:58.802Z,48.03
2018-03-07T01:08:27.262Z,47.13
2018-03-07T01:10:55.747Z,47.37
2018-03-07T01:13:24.246Z,45.97
2018-03-07T01:15:52.709Z,40.17
2018-03-07T01:18:21.214Z,39.20
2018-03-07T01:20:49.668Z,40.40
2018-03-07T01:23:18.159Z,38.97
2018-03-07T01:25:46.618Z,38.63
2018-03-07T01:28:15.118Z,38.27
2018-03-07T01:30:43.623Z,38.60
2018-03-07T01:33:12.081Z,38.77
2018-03-07T01:35:40.543Z,35.57
2018-03-07T01:38:09.058Z,40.10
2018-03-07T01:40:37.584Z,40.87
2018-03-07T01:43:06.042Z,41.83
2018-03-07T01:45:34.542Z,46.57
2018-03-07T01:48:02.998Z,46.73
2018-03-07T01:50:31.514Z,46.10
2018-03-07T01:52:59.983Z,45.50
2018-03-07T01:55:28.442Z,44.67
2018-03-07T01:57:56.923Z,47.10
2018-03-07T02:00:25.417Z,49.00
2018-03-07T02:02:53.913Z,49.37
2018-03-07T02:05:22.418Z,50.07
2018-03-07T02:07:50.919Z,47.17
2018-03-07T02:10:19.414Z,46.57
2018-03-07T02:12:47.929Z,48.80
2018-03-07T02:15:16.390Z,46.97
2018-03-07T02:17:44.873Z,43.57
2018-03-07T02:20:13.370Z,42.93
2018-03-07T02:22:41.871Z,40.80
2018-03-07T02:25:10.398Z,41.43
2018-03-07T02:27:38.870Z,40.73
2018-03-07T02:30:07.383Z,38.33
2018-03-07T02:32:35.851Z,37.20
2018-03-07T02:35:04.354Z,38.23
2018-03-07T02:37:32.895Z,38.97
2018-03-07T02:40:01.370Z,38.27
2018-03-07T02:42:29.888Z,39.47
2018-03-07T02:44:58.342Z,38.63
2018-03-07T02:47:26.839Z,38.10
2018-03-07T02:49:55.334Z,40.10
2018-03-07T02:52:23.802Z,37.43
2018-03-07T02:54:52.302Z,37.93
2018-03-07T02:57:20.827Z,36.47
2018-03-07T02:59:49.283Z,39.40
2018-03-07T03:02:17.773Z,38.03
2018-03-07T03:04:46.285Z,38.70
2018-03-07T03:07:14.755Z,41.10
2018-03-07T03:09:43.237Z,39.27
2018-03-07T03:12:11.735Z,40.27
2018-03-07T03:14:40.202Z,41.13
2018-03-07T03:17:08.699Z,42.67
2018-03-07T03:19:37.174Z,40.50
2018-03-07T03:22:05.689Z,38.97
2018-03-07T03:24:34.158Z,38.77
2018-03-07T03:27:02.622Z,39.67
2018-03-07T03:29:31.162Z,36.60
2018-03-07T03:31:59.625Z,31.70
2018-03-07T03:34:28.128Z,33.20
2018-03-07T03:36:56.594Z,36.47
2018-03-07T03:39:25.086Z,31.00
2018-03-07T03:41:53.586Z,27.20
2018-03-07T03:44:22.046Z,26.80
2018-03-07T03:46:50.580Z,26.53
2018-03-07T03:49:19.042Z,24.87
2018-03-07T03:51:47.512Z,26.47
2018-03-07T03:54:16.034Z,27.50
2018-03-07T03:56:44.531Z,27.60
2018-03-07T03:59:13.043Z,27.43
2018-03-07T04:01:41.541Z,26.57
2018-03-07T04:04:10.019Z,27.07
2018-03-07T04:06:38.541Z,24.97
2018-03-07T04:09:07.010Z,25.43
2018-03-07T04:11:35.506Z,25.80
2018-03-07T04:14:03.992Z,26.70
2018-03-07T04:16:32.498Z,28.50
2018-03-07T04:19:00.995Z,29.13
2018-03-07T04:21:29.456Z,29.17
2018-03-07T04:23:57.950Z,30.23
2018-03-07T04:26:26.431Z,31.30
2018-03-07T04:28:54.966Z,34.37
2018-03-07T04:31:23.430Z,33.43
2018-03-07T04:33:51.930Z,34.03
2018-03-07T04:36:20.454Z,32.20
2018-03-07T04:38:48.914Z,34.13
2018-03-07T04:41:17.387Z,33.40
2018-03-07T04:43:45.887Z,31.53
2018-03-07T04:46:14.349Z,25.93
2018-03-07T04:48:42.838Z,27.50
2018-03-07T04:51:11.290Z,30.70
2018-03-07T04:53:39.787Z,32.87
2018-03-07T04:56:08.283Z,32.70
2018-03-07T04:58:36.728Z,32.43
2018-03-07T05:01:05.246Z,31.87
2018-03-07T05:03:33.706Z,31.10
2018-03-07T05:06:02.169Z,32.90
2018-03-07T05:08:30.662Z,34.20
2018-03-07T05:10:59.118Z,33.93
2018-03-07T05:13:27.658Z,33.87
2018-03-07T05:15:56.110Z,32.87
2018-03-07T05:18:24.611Z,34.33
2018-03-07T05:20:53.079Z,31.67
2018-03-07T05:23:21.543Z,34.23
2018-03-07T05:25:50.066Z,35.90
2018-03-07T05:28:18.574Z,40.47
2018-03-07T05:30:47.085Z,38.40
2018-03-07T05:33:15.546Z,36.57
2018-03-07T05:35:44.002Z,35.33
2018-03-07T05:38:12.510Z,39.70
2018-03-07T05:40:40.985Z,41.70
2018-03-07T05:43:09.501Z,39.73
2018-03-07T05:45:38.007Z,39.60
2018-03-07T05:48:06.462Z,38.47
2018-03-07T05:50:34.962Z,37.17
2018-03-07T05:53:03.426Z,35.30
2018-03-07T05:55:31.935Z,33.93
2018-03-07T05:58:00.438Z,35.40
2018-03-07T06:00:28.902Z,31.30
2018-03-07T06:02:57.410Z,32.20
2018-03-07T06:05:25.906Z,32.07
2018-03-07T06:07:54.412Z,31.17
2018-03-07T06:10:22.902Z,29.53
2018-03-07T06:12:51.357Z,32.00
2018-03-07T06:15:19.855Z,24.03
2018-03-07T06:17:48.362Z,29.20
2018-03-07T06:20:16.844Z,29.93
2018-03-07T06:22:45.346Z,28.37
2018-03-07T06:25:13.854Z,30.27
2018-03-07T06:27:42.322Z,32.17
2018-03-07T06:30:10.835Z,31.57
2018-03-07T06:32:39.306Z,33.30
2018-03-07T06:35:07.841Z,33.47
2018-03-07T06:37:36.385Z,33.00
2018-03-07T06:40:04.855Z,34.77
2018-03-07T06:42:33.347Z,33.33
2018-03-07T06:45:01.871Z,34.43
2018-03-07T06:47:30.714Z,34.47
2018-03-07T06:49:59.188Z,36.57
2018-03-07T06:52:27.734Z,38.20
2018-03-07T06:54:56.212Z,35.07
2018-03-07T06:57:24.685Z,37.40
2018-03-07T06:59:53.186Z,37.20
2018-03-07T07:02:21.650Z,36.13
2018-03-07T07:04:50.131Z,37.90
2018-03-07T07:07:18.627Z,38.80
2018-03-07T07:09:47.090Z,38.80
2018-03-07T07:12:15.583Z,36.00
2018-03-07T07:14:44.059Z,34.93
2018-03-07T07:17:12.563Z,34.67
2018-03-07T07:19:41.019Z,31.47
2018-03-07T07:22:10.103Z,32.60
2018-03-07T07:24:38.641Z,33.43
2018-03-07T07:27:07.114Z,30.33
2018-03-07T07:29:35.569Z,31.67
2018-03-07T07:32:04.101Z,31.03
2018-03-07T07:34:32.638Z,31.63
2018-03-07T07:37:01.106Z,31.13
2018-03-07T07:39:29.633Z,31.33
2018-03-07T07:41:58.141Z,30.03
2018-03-07T07:44:26.625Z,31.80
2018-03-07T07:46:55.104Z,32.53
2018-03-07T07:49:23.636Z,32.10
2018-03-07T07:51:52.151Z,35.30
2018-03-07T07:54:20.654Z,34.50
2018-03-07T07:56:49.135Z,32.47
2018-03-07T07:59:17.659Z,33.83
2018-03-07T08:01:46.135Z,33.53
2018-03-07T08:04:14.603Z,31.83
2018-03-07T08:06:43.119Z,32.03
2018-03-07T08:09:11.567Z,31.57
2018-03-07T08:11:40.062Z,35.07
2018-03-07T08:14:08.570Z,36.23
2018-03-07T08:16:37.038Z,33.70
2018-03-07T08:19:05.550Z,36.63
2018-03-07T08:21:34.031Z,34.43
2018-03-07T08:24:02.567Z,34.73
2018-03-07T08:26:31.117Z,34.67
2018-03-07T08:28:59.563Z,33.30
2018-03-07T08:31:28.069Z,33.07
2018-03-07T08:33:56.556Z,33.77
2018-03-07T08:36:25.054Z,36.93
2018-03-07T08:38:53.566Z,36.93
2018-03-07T08:41:22.096Z,36.33
2018-03-07T08:43:50.575Z,35.03
2018-03-07T08:46:19.115Z,37.97
2018-03-07T08:48:47.626Z,36.97
2018-03-07T08:51:16.090Z,34.23
2018-03-07T08:53:44.606Z,36.30
2018-03-07T08:56:13.074Z,35.33
2018-03-07T08:58:41.629Z,35.15
2018-03-07T09:01:10.155Z,36.00
2018-03-07T09:03:38.666Z,35.87
2018-03-07T09:06:07.174Z,36.97
2018-03-07T09:08:35.685Z,36.97
2018-03-07T09:11:04.185Z,38.87
2018-03-07T09:13:32.771Z,36.60
2018-03-07T09:16:01.302Z,36.73
2018-03-07T09:18:29.855Z,37.60
2018-03-07T09:20:58.327Z,42.17
2018-03-07T09:23:26.798Z,37.77
2018-03-07T09:25:55.314Z,44.45
2018-03-07T09:28:23.783Z,47.60
2018-03-07T09:30:52.282Z,42.37
2018-03-07T09:33:20.754Z,38.40
2018-03-07T09:35:49.271Z,40.70
2018-03-07T09:38:17.761Z,38.90
2018-03-07T09:40:46.256Z,40.23
2018-03-07T09:43:14.760Z,40.23
2018-03-07T09:45:43.221Z,41.73
2018-03-07T09:48:11.730Z,42.00
2018-03-07T09:50:40.239Z,43.47
2018-03-07T09:53:08.706Z,44.17
2018-03-07T09:55:37.399Z,46.17
2018-03-07T09:58:06.165Z,45.63
2018-03-07T10:00:34.978Z,45.53
2018-03-07T10:03:03.746Z,44.73
2018-03-07T10:05:32.609Z,43.77
2018-03-07T10:08:01.342Z,44.20
2018-03-07T10:10:29.911Z,41.50
2018-03-07T10:12:58.393Z,43.87
2018-03-07T10:15:28.009Z,40.93
2018-03-07T10:17:56.697Z,42.77
2018-03-07T10:20:25.212Z,43.47
2018-03-07T10:22:53.739Z,40.73
2018-03-07T10:25:22.251Z,40.73
2018-03-07T10:27:50.775Z,40.37
2018-03-07T10:30:19.243Z,43.07
2018-03-07T10:32:47.765Z,42.80
2018-03-07T10:35:16.266Z,37.10
2018-03-07T10:37:44.753Z,34.93
2018-03-07T10:40:13.267Z,35.23
2018-03-07T10:42:41.745Z,36.00
2018-03-07T10:45:10.284Z,39.17
2018-03-07T10:47:38.768Z,38.47
2018-03-07T10:50:07.252Z,37.60
2018-03-07T10:52:35.782Z,38.97
2018-03-07T10:55:04.323Z,39.23
2018-03-07T10:57:32.854Z,37.87
2018-03-07T11:00:01.317Z,34.80
2018-03-07T11:02:29.868Z,27.83
2018-03-07T11:04:58.366Z,32.47
2018-03-07T11:07:26.874Z,32.03
2018-03-07T11:09:55.374Z,32.20
2018-03-07T11:12:23.884Z,31.53
2018-03-07T11:14:52.327Z,28.10
2018-03-07T11:17:20.833Z,31.43
2018-03-07T11:19:49.338Z,33.00
2018-03-07T11:22:17.810Z,30.90
2018-03-07T11:24:46.286Z,33.47
2018-03-07T11:27:14.802Z,31.73
2018-03-07T11:29:43.273Z,30.53
2018-03-07T11:32:11.744Z,30.00
2018-03-07T11:34:40.262Z,32.63
2018-03-07T11:37:08.762Z,33.37
2018-03-07T11:39:37.254Z,32.80
2018-03-07T11:42:05.769Z,35.20
2018-03-07T11:44:34.276Z,32.20
2018-03-07T11:47:02.782Z,32.73
2018-03-07T11:49:31.287Z,22.57
2018-03-07T11:51:59.822Z,19.20
2018-03-07T11:54:28.304Z,21.83
2018-03-07T11:56:56.812Z,21.57
2018-03-07T11:59:25.282Z,20.87
2018-03-07T12:01:53.816Z,21.53
2018-03-07T12:04:22.336Z,18.07
2018-03-07T12:06:50.903Z,17.50
2018-03-07T12:09:19.386Z,15.20
2018-03-07T12:11:47.863Z,17.47
2018-03-07T12:14:16.409Z,17.80
2018-03-07T12:16:44.887Z,16.77
2018-03-07T12:19:13.431Z,17.37
2018-03-07T12:21:42.017Z,15.57
2018-03-07T12:24:10.541Z,17.17
2018-03-07T12:26:39.092Z,13.93
2018-03-07T12:29:07.562Z,13.57
2018-03-07T12:31:36.062Z,14.27
2018-03-07T12:34:04.633Z,11.10
2018-03-07T12:36:33.117Z,9.77
2018-03-07T12:39:01.618Z,8.83
2018-03-07T12:41:30.123Z,12.47
2018-03-07T12:43:58.658Z,11.70
2018-03-07T12:46:27.144Z,8.67
2018-03-07T12:48:55.679Z,8.13
2018-03-07T12:51:24.154Z,8.03
2018-03-07T12:53:52.646Z,8.23
2018-03-07T12:56:21.134Z,10.43
2018-03-07T12:58:49.672Z,10.57
2018-03-07T13:01:18.159Z,10.07
2018-03-07T13:03:46.644Z,10.07
2018-03-07T13:06:15.151Z,9.63
2018-03-07T13:08:43.615Z,8.00
2018-03-07T13:11:12.122Z,8.60
2018-03-07T13:13:40.586Z,9.07
2018-03-07T13:16:09.052Z,7.40
2018-03-07T13:18:37.550Z,7.23
2018-03-07T13:21:06.065Z,7.77
2018-03-07T13:23:34.577Z,7.40
2018-03-07T13:26:03.087Z,8.53
2018-03-07T13:28:31.585Z,8.00
2018-03-07T13:31:00.067Z,7.43
2018-03-07T13:33:28.583Z,7.93
2018-03-07T13:35:57.092Z,7.60
2018-03-07T13:38:25.574Z,8.47
2018-03-07T13:40:54.071Z,8.20
2018-03-07T13:43:22.570Z,7.63
2018-03-07T13:45:51.082Z,7.87
2018-03-07T13:48:19.602Z,6.23
2018-03-07T13:50:48.098Z,6.77
2018-03-07T13:53:16.562Z,6.97
2018-03-07T13:55:45.085Z,7.97
2018-03-07T13:58:13.743Z,8.40
2018-03-07T14:00:42.312Z,9.77
2018-03-07T14:03:10.804Z,7.53
2018-03-07T14:05:39.691Z,8.73
2018-03-07T14:08:08.202Z,8.07
2018-03-07T14:10:36.703Z,8.60
2018-03-07T14:13:05.194Z,9.33
2018-03-07T14:15:33.722Z,8.70
2018-03-07T14:18:02.203Z,8.97
2018-03-07T14:20:30.674Z,7.17
2018-03-07T14:22:59.180Z,6.43
2018-03-07T14:25:27.700Z,7.37
2018-03-07T14:27:56.210Z,7.37
2018-03-07T14:30:24.678Z,7.13
2018-03-07T14:32:53.154Z,7.30
2018-03-07T14:35:21.703Z,7.40
2018-03-07T14:37:50.175Z,7.80
2018-03-07T14:40:18.700Z,7.10
2018-03-07T14:42:47.156Z,6.80
2018-03-07T14:45:15.675Z,6.40
2018-03-07T14:47:44.170Z,5.87
2018-03-07T14:50:12.678Z,5.50
2018-03-07T14:52:41.230Z,5.60
2018-03-07T14:55:09.744Z,6.20
2018-03-07T14:57:38.265Z,5.23
2018-03-07T15:00:06.831Z,5.20
2018-03-07T15:02:35.299Z,6.33
2018-03-07T15:05:03.819Z,6.20
2018-03-07T15:07:32.326Z,6.57
2018-03-07T15:10:00.796Z,7.80
2018-03-07T15:12:29.330Z,8.70
2018-03-07T15:14:57.827Z,8.33
2018-03-07T15:17:26.371Z,7.73
2018-03-07T15:19:54.879Z,8.43
2018-03-07T15:22:23.348Z,9.43
2018-03-07T15:24:51.899Z,9.30
2018-03-07T15:27:20.430Z,9.40
2018-03-07T15:29:48.946Z,10.07
2018-03-07T15:32:17.407Z,10.47
2018-03-07T15:34:45.877Z,10.80
2018-03-07T15:37:14.391Z,10.30
2018-03-07T15:39:42.878Z,9.77
2018-03-07T15:42:11.382Z,12.17
2018-03-07T15:44:39.854Z,11.80
2018-03-07T15:47:08.371Z,14.00
2018-03-07T15:49:36.902Z,14.37
2018-03-07T15:52:05.382Z,14.43
2018-03-07T15:54:33.931Z,15.50
2018-03-07T15:57:02.381Z,16.13
2018-03-07T15:59:30.910Z,15.73
2018-03-07T16:01:59.386Z,14.13
2018-03-07T16:04:27.899Z,17.17
2018-03-07T16:06:56.406Z,19.80
2018-03-07T16:09:24.873Z,53.93
2018-03-07T16:11:53.382Z,42.20
2018-03-07T16:14:21.863Z,36.17
2018-03-07T16:16:50.326Z,22.83
2018-03-07T16:19:18.837Z,18.87
2018-03-07T16:21:47.310Z,19.70
2018-03-07T16:24:15.779Z,22.23
2018-03-07T16:26:44.265Z,18.17
2018-03-07T16:29:12.773Z,18.33
2018-03-07T16:31:41.247Z,17.73
2018-03-07T16:34:09.766Z,16.30
2018-03-07T16:36:38.295Z,20.47
2018-03-07T16:39:06.775Z,19.03
2018-03-07T16:41:35.286Z,18.97
2018-03-07T16:44:03.757Z,18.93
2018-03-07T16:46:32.266Z,18.80
2018-03-07T16:49:00.790Z,20.00
2018-03-07T16:51:29.312Z,28.97
2018-03-07T16:53:57.786Z,26.90
2018-03-07T16:56:26.289Z,28.37
2018-03-07T16:58:54.754Z,22.07
2018-03-07T17:01:23.254Z,20.03
2018-03-07T17:03:51.754Z,23.30
2018-03-07T17:06:20.306Z,25.13
2018-03-07T17:08:48.798Z,23.67
2018-03-07T17:11:17.263Z,23.47
2018-03-07T17:13:45.776Z,23.03
2018-03-07T17:16:14.250Z,22.37
2018-03-07T17:18:42.767Z,22.90
2018-03-07T17:21:11.237Z,24.57
2018-03-07T17:23:39.738Z,24.27
2018-03-07T17:26:08.250Z,25.53
2018-03-07T17:28:36.718Z,22.20
2018-03-07T17:31:05.215Z,22.20
2018-03-07T17:33:33.723Z,25.03
2018-03-07T17:36:02.200Z,27.30
2018-03-07T17:38:30.711Z,25.37
2018-03-07T17:40:59.209Z,24.33
2018-03-07T17:43:27.670Z,24.20
2018-03-07T17:45:56.171Z,27.47
2018-03-07T17:48:24.675Z,25.73
2018-03-07T17:50:53.138Z,26.17
2018-03-07T17:53:21.639Z,32.07
2018-03-07T17:55:50.126Z,28.63
2018-03-07T17:58:18.634Z,30.53
2018-03-07T18:00:47.163Z,30.10
2018-03-07T18:03:15.675Z,30.57
2018-03-07T18:05:44.150Z,34.40
2018-03-07T18:08:12.618Z,34.70
2018-03-07T18:10:41.115Z,34.60
2018-03-07T18:13:09.579Z,39.77
2018-03-07T18:15:38.087Z,40.40
2018-03-07T18:18:06.559Z,42.83
2018-03-07T18:20:35.074Z,47.80
2018-03-07T18:23:03.590Z,50.80
2018-03-07T18:25:32.048Z,50.03
2018-03-07T18:28:00.578Z,48.87
2018-03-07T18:30:29.078Z,45.87
2018-03-07T18:32:57.577Z,46.57
2018-03-07T18:35:26.039Z,47.07
2018-03-07T18:37:54.550Z,48.20
2018-03-07T18:40:23.018Z,47.60
2018-03-07T18:42:51.495Z,47.40
2018-03-07T18:45:19.999Z,44.93
2018-03-07T18:47:48.515Z,42.73
2018-03-07T18:50:16.986Z,44.33
2018-03-07T18:52:45.511Z,44.77
2018-03-07T18:55:13.970Z,45.90
2018-03-07T18:57:42.499Z,46.27
2018-03-07T19:00:11.001Z,42.57
2018-03-07T19:02:39.461Z,45.60
2018-03-07T19:05:07.986Z,44.07
2018-03-07T19:07:36.451Z,42.73
2018-03-07T19:10:04.928Z,50.97
2018-03-07T19:12:33.471Z,50.37
2018-03-07T19:15:01.960Z,50.60
2018-03-07T19:17:30.466Z,56.40
2018-03-07T19:19:58.966Z,55.40
2018-03-07T19:22:27.426Z,47.67
2018-03-07T19:24:55.930Z,45.87
2018-03-07T19:27:24.393Z,46.70
2018-03-07T19:29:52.895Z,39.33
2018-03-07T19:32:21.367Z,41.37
2018-03-07T19:34:49.879Z,42.00
2018-03-07T19:37:18.385Z,43.93
2018-03-07T19:39:46.850Z,45.03
2018-03-07T19:42:15.354Z,63.23
2018-03-07T19:44:43.830Z,52.03
2018-03-07T19:47:12.330Z,47.80
2018-03-07T19:49:40.851Z,46.20
2018-03-07T19:52:09.362Z,44.07
2018-03-07T19:54:37.826Z,43.77
2018-03-07T19:57:06.342Z,41.13
2018-03-07T19:59:34.846Z,38.93
2018-03-07T20:02:03.345Z,38.73
2018-03-07T20:04:31.814Z,39.63
2018-03-07T20:07:00.314Z,40.83
2018-03-07T20:09:28.815Z,41.07
2018-03-07T20:11:57.320Z,40.70
2018-03-07T20:14:25.795Z,41.73
2018-03-07T20:16:54.314Z,41.00
2018-03-07T20:19:22.778Z,39.43
2018-03-07T20:21:51.285Z,41.87
2018-03-07T20:24:19.755Z,45.43
2018-03-07T20:26:48.244Z,50.70
2018-03-07T20:29:16.711Z,51.37
2018-03-07T20:31:45.226Z,50.77
2018-03-07T20:34:13.702Z,47.87
2018-03-07T20:36:42.244Z,51.10
2018-03-07T20:39:10.722Z,47.60
2018-03-07T20:41:39.188Z,48.50
2018-03-07T20:44:07.691Z,49.37
2018-03-07T20:46:36.154Z,46.27
2018-03-07T20:49:05.711Z,43.33
2018-03-07T20:51:34.220Z,41.53
2018-03-07T20:54:02.706Z,41.97
2018-03-07T20:56:31.251Z,44.23
2018-03-07T20:58:59.722Z,44.60
2018-03-07T21:01:28.243Z,44.87
2018-03-07T21:03:56.750Z,45.00
2018-03-07T21:06:25.249Z,43.87
2018-03-07T21:08:53.727Z,43.40
2018-03-07T21:11:22.237Z,45.37
2018-03-07T21:13:50.743Z,46.23
2018-03-07T21:16:19.215Z,48.80
2018-03-07T21:18:47.690Z,46.83
2018-03-07T21:21:16.211Z,46.47
2018-03-07T21:23:44.713Z,48.47
2018-03-07T21:26:13.200Z,47.33
2018-03-07T21:28:41.903Z,48.33
2018-03-07T21:31:10.374Z,48.93
2018-03-07T21:33:38.858Z,48.07
2018-03-07T21:36:07.367Z,49.67
2018-03-07T21:38:35.849Z,51.87
2018-03-07T21:41:04.314Z,50.60
2018-03-07T21:43:32.830Z,53.00
2018-03-07T21:46:01.298Z,55.07
2018-03-07T21:48:29.757Z,54.07
2018-03-07T21:50:58.257Z,53.57
2018-03-07T21:53:26.728Z,53.73
2018-03-07T21:55:55.194Z,52.87
2018-03-07T21:58:23.698Z,56.13
2018-03-07T22:00:52.202Z,52.13
2018-03-07T22:03:20.719Z,51.60
2018-03-07T22:05:49.213Z,56.73
2018-03-07T22:08:17.724Z,56.03
2018-03-07T22:10:46.208Z,57.57
2018-03-07T22:13:14.734Z,58.00
2018-03-07T22:15:43.244Z,57.30
2018-03-07T22:18:11.710Z,57.83
2018-03-07T22:20:41.100Z,52.60
2018-03-07T22:23:09.607Z,56.77
2018-03-07T22:25:38.066Z,58.23
2018-03-07T22:28:06.581Z,55.20
2018-03-07T22:30:35.062Z,57.87
2018-03-07T22:33:03.558Z,54.30
2018-03-07T22:35:32.026Z,53.63
2018-03-07T22:38:00.532Z,51.27
2018-03-07T22:40:28.990Z,48.63
2018-03-07T22:42:57.454Z,50.67
2018-03-07T22:45:25.931Z,44.97
2018-03-07T22:47:54.389Z,47.10
2018-03-07T22:50:22.888Z,47.23
2018-03-07T22:52:51.341Z,40.87
2018-03-07T22:55:19.815Z,37.17
2018-03-07T22:57:48.272Z,41.20
2018-03-07T23:00:25.093Z,43.03
2018-03-07T23:02:53.589Z,42.03
2018-03-07T23:05:22.058Z,43.10
2018-03-07T23:07:50.560Z,45.23
2018-03-07T23:10:19.024Z,43.10
2018-03-07T23:12:47.522Z,40.87
2018-03-07T23:15:15.986Z,36.60
2018-03-07T23:17:44.514Z,39.77
2018-03-07T23:20:12.974Z,43.27
2018-03-07T23:22:41.457Z,45.20
2018-03-07T23:25:09.966Z,47.03
2018-03-07T23:27:38.440Z,44.53
2018-03-07T23:30:06.937Z,47.63
2018-03-07T23:32:35.424Z,41.03
2018-03-07T23:35:03.950Z,44.37
2018-03-07T23:37:32.448Z,44.27
2018-03-07T23:40:00.942Z,42.70
2018-03-07T23:42:29.452Z,42.13
2018-03-07T23:44:57.934Z,42.87
2018-03-07T23:47:26.415Z,41.33
2018-03-07T23:49:54.925Z,40.27
2018-03-07T23:52:23.380Z,38.43
2018-03-07T23:54:51.923Z,34.93
2018-03-07T23:57:20.414Z,34.17
2018-03-07T23:59:48.877Z,31.87
